Observation data for Seminole on 08/14/2019      Previous  Date  Next       Current Mesonet Observations  Soil Data  Daily Summary Page  Observations in Plain Language
KSM1 140500Z 08006KT 27/16 A301 RMK A01 T02690155  RH  052%=      5-min Rain = 0
KSM1 140505Z 08006KT 27/15 A301 RMK A01 T02680154  RH  052%=      5-min Rain = 0
KSM1 140510Z 07006KT 27/15 A3011 RMK A01 T02670154  RH  052%=      5-min Rain = 0
KSM1 140515Z 04006KT 27/16 A3011 RMK A01 T02660155  RH  053%=      5-min Rain = 0
KSM1 140520Z 03007KT 26/16 A3011 RMK A01 T02640155  RH  054%=      5-min Rain = 0
KSM1 140525Z 04007KT 26/16 A3011 RMK A01 T02630155  RH  054%=      5-min Rain = 0
KSM1 140530Z 05006KT 26/16 A3011 RMK A01 T02620155  RH  054%=      5-min Rain = 0
KSM1 140535Z 05006KT 26/16 A3011 RMK A01 T02600155  RH  055%=      5-min Rain = 0
KSM1 140540Z 06006KT 26/16 A3011 RMK A01 T02580156  RH  056%=      5-min Rain = 0
KSM1 140545Z 06006KT 26/16 A3012 RMK A01 T02570156  RH  056%=      5-min Rain = 0
KSM1 140550Z 06006KT 26/15 A3012 RMK A01 T02580154  RH  055%=      5-min Rain = 0
KSM1 140555Z 06006KT 26/15 A3012 RMK A01 T02580154  RH  055%=      5-min Rain = 0
KSM1 140600Z 06005KT 26/15 A3012 RMK A01 T02570154  RH  055%=      5-min Rain = 0
KSM1 140605Z 07005KT 26/15 A3012 RMK A01 T02560153  RH  055%=      5-min Rain = 0
KSM1 140610Z 08005KT 25/15 A3012 RMK A01 T02540153  RH  056%=      5-min Rain = 0
KSM1 140615Z 08005KT 25/15 A3012 RMK A01 T02520152  RH  056%=      5-min Rain = 0
KSM1 140620Z 08005KT 25/15 A3012 RMK A01 T02510152  RH  056%=      5-min Rain = 0
KSM1 140625Z 08004KT 25/15 A3012 RMK A01 T02510152  RH  057%=      5-min Rain = 0
KSM1 140630Z 08004KT 25/15 A3012 RMK A01 T02500151  RH  057%=      5-min Rain = 0
KSM1 140635Z 07004KT 25/15 A3012 RMK A01 T02500151  RH  057%=      5-min Rain = 0
KSM1 140640Z 06004KT 25/15 A3012 RMK A01 T02500151  RH  056%=      5-min Rain = 0
KSM1 140645Z 06004KT 25/15 A3012 RMK A01 T02490151  RH  057%=      5-min Rain = 0
KSM1 140650Z 05004KT 25/15 A3012 RMK A01 T02480151  RH  057%=      5-min Rain = 0
KSM1 140655Z 05006KT 25/15 A3012 RMK A01 T02510153  RH  057%=      5-min Rain = 0
KSM1 140700Z 05007KT 25/16 A3012 RMK A01 T02540156  RH  057%=      5-min Rain = 0
KSM1 140705Z 06007KT 25/16 A3012 RMK A01 T02530159  RH  059%=      5-min Rain = 0
KSM1 140710Z 07007KT 25/16 A3012 RMK A01 T02520162  RH  060%=      5-min Rain = 0
KSM1 140715Z 08006KT 25/16 A3011 RMK A01 T02540163  RH  060%=      5-min Rain = 0
KSM1 140720Z 07006KT 25/16 A3011 RMK A01 T02530164  RH  061%=      5-min Rain = 0
KSM1 140725Z 07006KT 25/16 A3011 RMK A01 T02520164  RH  061%=      5-min Rain = 0
KSM1 140730Z 07006KT 25/17 A3011 RMK A01 T02510165  RH  062%=      5-min Rain = 0
KSM1 140735Z 06007KT 25/17 A3011 RMK A01 T02520165  RH  062%=      5-min Rain = 0
KSM1 140740Z 07007KT 25/17 A3011 RMK A01 T02510166  RH  062%=      5-min Rain = 0
KSM1 140745Z 07007KT 25/17 A3011 RMK A01 T02510166  RH  062%=      5-min Rain = 0
KSM1 140750Z 07007KT 25/17 A3011 RMK A01 T02510166  RH  062%=      5-min Rain = 0
KSM1 140755Z 06006KT 25/17 A3011 RMK A01 T02510166  RH  062%=      5-min Rain = 0
KSM1 140800Z 06006KT 25/17 A3011 RMK A01 T02490167  RH  063%=      5-min Rain = 0
KSM1 140805Z 06006KT 25/17 A3011 RMK A01 T02470167  RH  064%=      5-min Rain = 0
KSM1 140810Z 06006KT 25/17 A3011 RMK A01 T02450167  RH  065%=      5-min Rain = 0
KSM1 140815Z 05007KT 25/17 A3011 RMK A01 T02450168  RH  065%=      5-min Rain = 0
KSM1 140820Z 04007KT 24/17 A3011 RMK A01 T02430167  RH  066%=      5-min Rain = 0
KSM1 140825Z 04008KT 24/17 A3011 RMK A01 T02420167  RH  066%=      5-min Rain = 0
KSM1 140830Z 04007KT 24/17 A3011 RMK A01 T02420168  RH  066%=      5-min Rain = 0
KSM1 140835Z 04007KT 24/17 A3011 RMK A01 T02410168  RH  067%=      5-min Rain = 0
KSM1 140840Z 05007KT 24/17 A3011 RMK A01 T02410168  RH  067%=      5-min Rain = 0
KSM1 140845Z 05008KT 24/17 A3011 RMK A01 T02400169  RH  068%=      5-min Rain = 0
KSM1 140850Z 05008KT 24/17 A3011 RMK A01 T02400169  RH  068%=      5-min Rain = 0
KSM1 140855Z 05008KT 24/17 A3011 RMK A01 T02400169  RH  068%=      5-min Rain = 0
KSM1 140900Z 05009KT 24/17 A3011 RMK A01 T02400169  RH  068%=      5-min Rain = 0
KSM1 140905Z 05008KT 24/17 A3011 RMK A01 T02410169  RH  068%=      5-min Rain = 0
KSM1 140910Z 05008KT 24/17 A3011 RMK A01 T02400169  RH  068%=      5-min Rain = 0
KSM1 140915Z 05009KT 24/17 A3011 RMK A01 T02390170  RH  068%=      5-min Rain = 0
KSM1 140920Z 05009KT 24/17 A3011 RMK A01 T02380170  RH  069%=      5-min Rain = 0
KSM1 140925Z 05009KT 24/17 A3011 RMK A01 T02380170  RH  069%=      5-min Rain = 0
KSM1 140930Z 05010KT 24/17 A3011 RMK A01 T02370170  RH  069%=      5-min Rain = 0
KSM1 140935Z 05010KT 24/17 A3011 RMK A01 T02360169  RH  069%=      5-min Rain = 0
KSM1 140940Z 05010KT 24/17 A3011 RMK A01 T02360169  RH  070%=      5-min Rain = 0
KSM1 140945Z 05010KT 24/17 A3012 RMK A01 T02350170  RH  070%=      5-min Rain = 0
KSM1 140950Z 05009KT 24/17 A3011 RMK A01 T02350170  RH  070%=      5-min Rain = 0
KSM1 140955Z 06008KT 24/17 A3011 RMK A01 T02350170  RH  071%=      5-min Rain = 0
KSM1 141000Z 06008KT 23/17 A3011 RMK A01 T02340171  RH  071%=      5-min Rain = 0
KSM1 141005Z 05008KT 23/17 A3011 RMK A01 T02340171  RH  071%=      5-min Rain = 0
KSM1 141010Z 06008KT 23/17 A3011 RMK A01 T02340171  RH  071%=      5-min Rain = 0
KSM1 141015Z 05007KT 23/17 A3011 RMK A01 T02340172  RH  072%=      5-min Rain = 0
KSM1 141020Z 05007KT 23/17 A3011 RMK A01 T02330172  RH  072%=      5-min Rain = 0
KSM1 141025Z 05007KT 23/17 A3011 RMK A01 T02310172  RH  073%=      5-min Rain = 0
KSM1 141030Z 05007KT 23/17 A3011 RMK A01 T02310172  RH  073%=      5-min Rain = 0
KSM1 141035Z 05008KT 23/17 A3011 RMK A01 T02300172  RH  073%=      5-min Rain = 0
KSM1 141040Z 05008KT 23/17 A3011 RMK A01 T02290172  RH  074%=      5-min Rain = 0
KSM1 141045Z 04008KT 23/17 A3012 RMK A01 T02290171  RH  074%=      5-min Rain = 0
KSM1 141050Z 04008KT 23/17 A3012 RMK A01 T02290171  RH  073%=      5-min Rain = 0
KSM1 141055Z 04008KT 23/17 A3012 RMK A01 T02290172  RH  074%=      5-min Rain = 0
KSM1 141100Z 04008KT 23/17 A3012 RMK A01 T02290172  RH  074%=      5-min Rain = 0
KSM1 141105Z 04008KT 23/17 A3012 RMK A01 T02280171  RH  074%=      5-min Rain = 0
KSM1 141110Z 04009KT 23/17 A3012 RMK A01 T02270172  RH  074%=      5-min Rain = 0
KSM1 141115Z 04010KT 23/17 A3012 RMK A01 T02280172  RH  074%=      5-min Rain = 0
KSM1 141120Z 04009KT 23/17 A3012 RMK A01 T02290172  RH  074%=      5-min Rain = 0
KSM1 141125Z 04010KT 23/17 A3013 RMK A01 T02280172  RH  074%=      5-min Rain = 0
KSM1 141130Z 04009KT 23/17 A3013 RMK A01 T02280171  RH  074%=      5-min Rain = 0
KSM1 141135Z 04009KT 23/17 A3013 RMK A01 T02280171  RH  074%=      5-min Rain = 0
KSM1 141140Z 04009KT 23/17 A3013 RMK A01 T02280171  RH  074%=      5-min Rain = 0
KSM1 141145Z 04009KT 23/17 A3014 RMK A01 T02270171  RH  074%=      5-min Rain = 0
KSM1 141150Z 04010KT 23/17 A3014 RMK A01 T02270171  RH  074%=      5-min Rain = 0
KSM1 141155Z 04010KT 23/17 A3014 RMK A01 T02270170  RH  074%=      5-min Rain = 0
KSM1 141200Z 04010KT 23/17 A3015 RMK A01 T02260170  RH  074%=      5-min Rain = 0
KSM1 141205Z 04010KT 23/17 A3015 RMK A01 T02250170  RH  074%=      5-min Rain = 0
KSM1 141210Z 04010KT 22/17 A3015 RMK A01 T02240170  RH  075%=      5-min Rain = 0
KSM1 141215Z 05010G15KT 22/17 A3015 RMK A01 T02240170  RH  075%=      5-min Rain = 0
KSM1 141220Z 04011KT 22/17 A3016 RMK A01 T02240169  RH  075%=      5-min Rain = 0
KSM1 141225Z 04011KT 22/17 A3016 RMK A01 T02240169  RH  075%=      5-min Rain = 0
KSM1 141230Z 05011KT 22/17 A3016 RMK A01 T02240169  RH  074%=      5-min Rain = 0
KSM1 141235Z 05011KT 23/17 A3016 RMK A01 T02250168  RH  074%=      5-min Rain = 0
KSM1 141240Z 05012KT 23/17 A3016 RMK A01 T02260168  RH  073%=      5-min Rain = 0
KSM1 141245Z 05012G17KT 23/17 A3017 RMK A01 T02270168  RH  073%=      5-min Rain = 0
KSM1 141250Z 05013KT 23/17 A3017 RMK A01 T02280167  RH  072%=      5-min Rain = 0
KSM1 141255Z 05013G18KT 23/17 A3017 RMK A01 T02290167  RH  072%=      5-min Rain = 0
KSM1 141300Z 05013G18KT 23/17 A3017 RMK A01 T02300167  RH  071%=      5-min Rain = 0
KSM1 141305Z 05012KT 23/17 A3018 RMK A01 T02310167  RH  071%=      5-min Rain = 0
KSM1 141310Z 05015KT 23/17 A3018 RMK A01 T02310167  RH  071%=      5-min Rain = 0
KSM1 141315Z 05014G20KT 23/17 A3018 RMK A01 T02320167  RH  070%=      5-min Rain = 0
KSM1 141320Z 04015G20KT 23/17 A3018 RMK A01 T02330166  RH  069%=      5-min Rain = 0
KSM1 141325Z 05018KT 23/17 A3019 RMK A01 T02330165  RH  069%=      5-min Rain = 0
KSM1 141330Z 05016G22KT 23/17 A3019 RMK A01 T02340165  RH  068%=      5-min Rain = 0
KSM1 141335Z 05016G22KT 24/16 A3019 RMK A01 T02350164  RH  068%=      5-min Rain = 0
KSM1 141340Z 04017G22KT 24/16 A302 RMK A01 T02350163  RH  067%=      5-min Rain = 0
KSM1 141345Z 04017G23KT 24/16 A302 RMK A01 T02360163  RH  067%=      5-min Rain = 0
KSM1 141350Z 04019G25KT 24/16 A302 RMK A01 T02350163  RH  067%=      5-min Rain = 0
KSM1 141355Z 04018KT 24/16 A3021 RMK A01 T02350164  RH  068%=      5-min Rain = 0
KSM1 141400Z 03019G24KT 23/16 A3021 RMK A01 T02330164  RH  068%=      5-min Rain = 0
KSM1 141405Z 04015G23KT 23/16 A3022 RMK A01 T02340164  RH  068%=      5-min Rain = 0
KSM1 141410Z 03018G24KT 24/16 A3022 RMK A01 T02360164  RH  067%=      5-min Rain = 0
KSM1 141415Z 04019G25KT 24/16 A3022 RMK A01 T02380163  RH  066%=      5-min Rain = 0
KSM1 141420Z 03021G26KT 24/16 A3023 RMK A01 T02370160  RH  065%=      5-min Rain = 0
KSM1 141425Z 04018G26KT 24/16 A3023 RMK A01 T02380160  RH  065%=      5-min Rain = 0
KSM1 141430Z 03021G26KT 24/16 A3023 RMK A01 T02370158  RH  064%=      5-min Rain = 0
KSM1 141435Z 04020G25KT 23/16 A3023 RMK A01 T02340155  RH  064%=      5-min Rain = 0
KSM1 141440Z 04017G22KT 24/16 A3024 RMK A01 T02390156  RH  063%=      5-min Rain = 0
KSM1 141445Z 04018G23KT 24/16 A3024 RMK A01 T02400155  RH  062%=      5-min Rain = 0
KSM1 141450Z 04018G24KT 24/16 A3024 RMK A01 T02420156  RH  061%=      5-min Rain = 0
KSM1 141455Z 05019G25KT 24/16 A3024 RMK A01 T02420156  RH  061%=      5-min Rain = 0
KSM1 141500Z 04018G23KT 25/15 A3024 RMK A01 T02450154  RH  060%=      5-min Rain = 0
KSM1 141505Z 05018G24KT 25/15 A3024 RMK A01 T02450154  RH  060%=      5-min Rain = 0
KSM1 141510Z 04018G24KT 24/15 A3024 RMK A01 T02440153  RH  060%=      5-min Rain = 0
KSM1 141515Z 04018KT 25/15 A3025 RMK A01 T02450153  RH  059%=      5-min Rain = 0
KSM1 141520Z 04017KT 25/15 A3025 RMK A01 T02470152  RH  058%=      5-min Rain = 0
KSM1 141525Z 05016G22KT 25/15 A3025 RMK A01 T02500153  RH  057%=      5-min Rain = 0
KSM1 141530Z 04017G23KT 26/15 A3024 RMK A01 T02570153  RH  055%=      5-min Rain = 0
KSM1 141535Z 04016G24KT 26/15 A3024 RMK A01 T02620152  RH  053%=      5-min Rain = 0
KSM1 141540Z 04017G24KT 26/15 A3024 RMK A01 T02630152  RH  053%=      5-min Rain = 0
KSM1 141545Z 05019G24KT 26/15 A3025 RMK A01 T02630152  RH  053%=      5-min Rain = 0
KSM1 141550Z 05018G24KT 27/15 A3025 RMK A01 T02650153  RH  053%=      5-min Rain = 0
KSM1 141555Z 05018G24KT 27/15 A3024 RMK A01 T02680152  RH  051%=      5-min Rain = 0
KSM1 141600Z 05017G24KT 27/15 A3024 RMK A01 T02690151  RH  051%=      5-min Rain = 0
KSM1 141605Z 05016G22KT 27/15 A3024 RMK A01 T02700150  RH  050%=      5-min Rain = 0
KSM1 141610Z 04017G22KT 28/15 A3024 RMK A01 T02760145  RH  047%=      5-min Rain = 0
KSM1 141615Z 04016G23KT 28/14 A3023 RMK A01 T02790144  RH  045%=      5-min Rain = 0
KSM1 141620Z 04016G21KT 29/14 A3023 RMK A01 T02870144  RH  043%=      5-min Rain = 0
KSM1 141625Z 05016G21KT 29/15 A3023 RMK A01 T02860145  RH  044%=      5-min Rain = 0
KSM1 141630Z 05015G20KT 29/14 A3023 RMK A01 T02870144  RH  043%=      5-min Rain = 0
KSM1 141635Z 04015G20KT 29/14 A3023 RMK A01 T02860141  RH  043%=      5-min Rain = 0
KSM1 141640Z 04015KT 29/14 A3023 RMK A01 T02880140  RH  042%=      5-min Rain = 0
KSM1 141645Z 04015G20KT 29/14 A3023 RMK A01 T02930139  RH  041%=      5-min Rain = 0
KSM1 141650Z 03015G20KT 30/14 A3023 RMK A01 T02960137  RH  040%=      5-min Rain = 0
KSM1 141655Z 04013G19KT 30/14 A3022 RMK A01 T02980138  RH  039%=      5-min Rain = 0
KSM1 141700Z 04014G19KT 30/14 A3022 RMK A01 T02970139  RH  040%=      5-min Rain = 0
KSM1 141705Z 05014KT 30/14 A3022 RMK A01 T02960135  RH  039%=      5-min Rain = 0
KSM1 141710Z 06014G20KT 30/14 A3021 RMK A01 T02970135  RH  039%=      5-min Rain = 0
KSM1 141715Z 06015KT 30/13 A3021 RMK A01 T03000132  RH  037%=      5-min Rain = 0
KSM1 141720Z 06013G18KT 30/14 A3021 RMK A01 T03000135  RH  038%=      5-min Rain = 0
KSM1 141725Z 07015KT 30/13 A3021 RMK A01 T03010134  RH  037%=      5-min Rain = 0
KSM1 141730Z 06014G19KT 30/13 A3021 RMK A01 T03030133  RH  037%=      5-min Rain = 0
KSM1 141735Z 06012G17KT 30/14 A302 RMK A01 T03030135  RH  037%=      5-min Rain = 0
KSM1 141740Z 07014G19KT 31/13 A302 RMK A01 T03050134  RH  037%=      5-min Rain = 0
KSM1 141745Z 07012G17KT 30/14 A302 RMK A01 T03030136  RH  038%=      5-min Rain = 0
KSM1 141750Z 07012G17KT 31/13 A3019 RMK A01 T03070134  RH  036%=      5-min Rain = 0
KSM1 141755Z 08012KT 31/13 A3019 RMK A01 T03090133  RH  036%=      5-min Rain = 0
KSM1 141800Z 08011G16KT 31/13 A3019 RMK A01 T03090133  RH  036%=      5-min Rain = 0
KSM1 141805Z 08011G16KT 31/13 A3019 RMK A01 T03120133  RH  035%=      5-min Rain = 0
KSM1 141810Z 09013G18KT 31/13 A3018 RMK A01 T03120131  RH  035%=      5-min Rain = 0
KSM1 141815Z 08013G20KT 32/13 A3018 RMK A01 T03150128  RH  033%=      5-min Rain = 0
KSM1 141820Z 09012G19KT 32/13 A3018 RMK A01 T03170129  RH  033%=      5-min Rain = 0
KSM1 141825Z 09012G19KT 32/13 A3018 RMK A01 T03180128  RH  033%=      5-min Rain = 0
KSM1 141830Z 08010G16KT 32/13 A3018 RMK A01 T03180130  RH  033%=      5-min Rain = 0
KSM1 141835Z 09012KT 32/13 A3018 RMK A01 T03220129  RH  032%=      5-min Rain = 0
KSM1 141840Z 09010G17KT 32/13 A3018 RMK A01 T03200126  RH  032%=      5-min Rain = 0
KSM1 141845Z 10011G17KT 32/12 A3017 RMK A01 T03230123  RH  031%=      5-min Rain = 0
KSM1 141850Z 08009KT 32/13 A3017 RMK A01 T03230126  RH  031%=      5-min Rain = 0
KSM1 141855Z 08012G17KT 32/13 A3017 RMK A01 T03230126  RH  031%=      5-min Rain = 0
KSM1 141900Z 09009KT 33/12 A3017 RMK A01 T03250124  RH  031%=      5-min Rain = 0
KSM1 141905Z 07012G17KT 33/12 A3017 RMK A01 T03280122  RH  030%=      5-min Rain = 0
KSM1 141910Z 09010KT 33/12 A3017 RMK A01 T03260122  RH  030%=      5-min Rain = 0
KSM1 141915Z 10009G16KT 33/12 A3017 RMK A01 T03260123  RH  030%=      5-min Rain = 0
KSM1 141920Z 08009KT 33/12 A3017 RMK A01 T03300124  RH  030%=      5-min Rain = 0
KSM1 141925Z 06008KT 33/12 A3017 RMK A01 T03290124  RH  030%=      5-min Rain = 0
KSM1 141930Z 08008G15KT 33/12 A3017 RMK A01 T03270124  RH  030%=      5-min Rain = 0
KSM1 141935Z 08009G15KT 33/12 A3016 RMK A01 T03330123  RH  029%=      5-min Rain = 0
KSM1 141940Z 04011G16KT 33/12 A3016 RMK A01 T03340122  RH  029%=      5-min Rain = 0
KSM1 141945Z 06009KT 34/12 A3016 RMK A01 T03360124  RH  029%=      5-min Rain = 0
KSM1 141950Z 07009KT 34/13 A3016 RMK A01 T03350125  RH  029%=      5-min Rain = 0
KSM1 141955Z 06011G16KT 33/13 A3016 RMK A01 T03330127  RH  030%=      5-min Rain = 0
KSM1 142000Z 05010G16KT 34/13 A3015 RMK A01 T03350125  RH  029%=      5-min Rain = 0
KSM1 142005Z 06009KT 34/12 A3015 RMK A01 T03370124  RH  029%=      5-min Rain = 0
KSM1 142010Z 09007KT 34/12 A3015 RMK A01 T03370124  RH  029%=      5-min Rain = 0
KSM1 142015Z 06010G15KT 34/13 A3014 RMK A01 T03400125  RH  028%=      5-min Rain = 0
KSM1 142020Z 05009G16KT 34/12 A3014 RMK A01 T03380122  RH  028%=      5-min Rain = 0
KSM1 142025Z 05007KT 34/12 A3013 RMK A01 T03350121  RH  028%=      5-min Rain = 0
KSM1 142030Z 08007KT 34/12 A3013 RMK A01 T03360120  RH  028%=      5-min Rain = 0
KSM1 142035Z 04009G16KT 34/12 A3013 RMK A01 T03370121  RH  028%=      5-min Rain = 0
KSM1 142040Z 05010G16KT 34/12 A3013 RMK A01 T03380117  RH  027%=      5-min Rain = 0
KSM1 142045Z 04008G14KT 34/11 A3012 RMK A01 T03410114  RH  026%=      5-min Rain = 0
KSM1 142050Z 07009KT 34/12 A3012 RMK A01 T03410119  RH  027%=      5-min Rain = 0
KSM1 142055Z 06007G14KT 34/11 A3012 RMK A01 T03380114  RH  027%=      5-min Rain = 0
KSM1 142100Z 02010G15KT 34/11 A3012 RMK A01 T03430110  RH  025%=      5-min Rain = 0
KSM1 142105Z 06012G17KT 34/12 A3011 RMK A01 T03440115  RH  026%=      5-min Rain = 0
KSM1 142110Z 05010G15KT 34/11 A3011 RMK A01 T03410113  RH  026%=      5-min Rain = 0
KSM1 142115Z 05009KT 34/11 A3011 RMK A01 T03420110  RH  025%=      5-min Rain = 0
KSM1 142120Z 05010KT 35/11 A3011 RMK A01 T03460107  RH  024%=      5-min Rain = 0
KSM1 142125Z 04013G18KT 35/10 A3011 RMK A01 T03470101  RH  023%=      5-min Rain = 0
KSM1 142130Z 06013KT 35/10 A3011 RMK A01 T03450096  RH  022%=      5-min Rain = 0
KSM1 142135Z 05008G13KT 34/10 A3011 RMK A01 T03430095  RH  023%=      5-min Rain = 0
KSM1 142140Z 05012G18KT 34/10 A3011 RMK A01 T03430095  RH  023%=      5-min Rain = 0
KSM1 142145Z 04007G14KT 34/09 A3011 RMK A01 T03440094  RH  022%=      5-min Rain = 0
KSM1 142150Z 08006KT 35/09 A301 RMK A01 T03450094  RH  022%=      5-min Rain = 0
KSM1 142155Z 07009KT 35/09 A301 RMK A01 T03470093  RH  022%=      5-min Rain = 0
KSM1 142200Z 09011KT 35/09 A301 RMK A01 T03470087  RH  021%=      5-min Rain = 0
KSM1 142205Z 07006KT 35/08 A301 RMK A01 T03470083  RH  020%=      5-min Rain = 0
KSM1 142210Z 08008G13KT 35/09 A301 RMK A01 T03470088  RH  021%=      5-min Rain = 0
KSM1 142215Z 06008G13KT 35/09 A3009 RMK A01 T03450087  RH  021%=      5-min Rain = 0
KSM1 142220Z 06010KT 35/09 A3009 RMK A01 T03480085  RH  020%=      5-min Rain = 0
KSM1 142225Z 08005KT 35/09 A3009 RMK A01 T03480086  RH  021%=      5-min Rain = 0
KSM1 142230Z 07008KT 35/09 A3009 RMK A01 T03480089  RH  021%=      5-min Rain = 0
KSM1 142235Z 10010KT 35/09 A3009 RMK A01 T03480089  RH  021%=      5-min Rain = 0
KSM1 142240Z 10008G16KT 35/09 A3008 RMK A01 T03480088  RH  021%=      5-min Rain = 0
KSM1 142245Z 09011G17KT 35/09 A3008 RMK A01 T03460085  RH  021%=      5-min Rain = 0
KSM1 142250Z 09007G12KT 35/08 A3008 RMK A01 T03460084  RH  021%=      5-min Rain = 0
KSM1 142255Z 07008G13KT 35/08 A3008 RMK A01 T03460082  RH  020%=      5-min Rain = 0
KSM1 142300Z 06008KT 35/08 A3008 RMK A01 T03470083  RH  020%=      5-min Rain = 0
KSM1 142305Z 09009KT 35/08 A3008 RMK A01 T03470083  RH  020%=      5-min Rain = 0
KSM1 142310Z 09006G12KT 35/08 A3008 RMK A01 T03470082  RH  020%=      5-min Rain = 0
KSM1 142315Z 11008G15KT 35/08 A3008 RMK A01 T03480080  RH  020%=      5-min Rain = 0
KSM1 142320Z 09008G14KT 35/08 A3007 RMK A01 T03460080  RH  020%=      5-min Rain = 0
KSM1 142325Z 10006KT 35/08 A3007 RMK A01 T03460078  RH  020%=      5-min Rain = 0
KSM1 142330Z 12007KT 35/08 A3007 RMK A01 T03460080  RH  020%=      5-min Rain = 0
KSM1 142335Z 08007KT 35/08 A3007 RMK A01 T03460080  RH  020%=      5-min Rain = 0
KSM1 142340Z 08005G10KT 35/08 A3007 RMK A01 T03460080  RH  020%=      5-min Rain = 0
KSM1 142345Z 09007KT 35/08 A3007 RMK A01 T03460084  RH  021%=      5-min Rain = 0
KSM1 142350Z 11013G18KT 35/09 A3007 RMK A01 T03460090  RH  021%=      5-min Rain = 0
KSM1 142355Z 10012KT 34/09 A3007 RMK A01 T03440090  RH  022%=      5-min Rain = 0
KSM1 150000Z 10011G16KT 34/09 A3007 RMK A01 T03420090  RH  022%=      5-min Rain = 0
KSM1 150005Z 10009KT 34/09 A3007 RMK A01 T03410089  RH  022%=      5-min Rain = 0
KSM1 150010Z 12010KT 34/09 A3007 RMK A01 T03400089  RH  022%=      5-min Rain = 0
KSM1 150015Z 12009KT 34/09 A3007 RMK A01 T03400090  RH  022%=      5-min Rain = 0
KSM1 150020Z 12011KT 34/09 A3007 RMK A01 T03400088  RH  022%=      5-min Rain = 0
KSM1 150025Z 11009KT 34/09 A3007 RMK A01 T03360089  RH  022%=      5-min Rain = 0
KSM1 150030Z 11011KT 34/09 A3008 RMK A01 T03360088  RH  022%=      5-min Rain = 0
KSM1 150035Z 09007KT 34/09 A3008 RMK A01 T03350088  RH  023%=      5-min Rain = 0
KSM1 150040Z 10008KT 33/09 A3008 RMK A01 T03320086  RH  023%=      5-min Rain = 0
KSM1 150045Z 10010KT 33/09 A3008 RMK A01 T03320089  RH  023%=      5-min Rain = 0
KSM1 150050Z 11010KT 33/09 A3008 RMK A01 T03310091  RH  023%=      5-min Rain = 0
KSM1 150055Z 12009KT 33/09 A3008 RMK A01 T03300092  RH  024%=      5-min Rain = 0
KSM1 150100Z 11010KT 33/09 A3008 RMK A01 T03290091  RH  024%=      5-min Rain = 0
KSM1 150105Z 11010KT 33/09 A3008 RMK A01 T03270091  RH  024%=      5-min Rain = 0
KSM1 150110Z 12008KT 32/09 A3009 RMK A01 T03240091  RH  024%=      5-min Rain = 0
KSM1 150115Z 11008KT 32/09 A3009 RMK A01 T03220090  RH  025%=      5-min Rain = 0
KSM1 150120Z 11007KT 32/09 A3009 RMK A01 T03190090  RH  025%=      5-min Rain = 0
KSM1 150125Z 11006KT 32/09 A3009 RMK A01 T03160090  RH  025%=      5-min Rain = 0
KSM1 150130Z 11006KT 31/09 A301 RMK A01 T03120090  RH  026%=      5-min Rain = 0
KSM1 150135Z 11005KT 31/09 A301 RMK A01 T03080091  RH  027%=      5-min Rain = 0
KSM1 150140Z 11005KT 31/09 A301 RMK A01 T03050092  RH  027%=      5-min Rain = 0
KSM1 150145Z 11005KT 30/09 A301 RMK A01 T03010092  RH  028%=      5-min Rain = 0
KSM1 150150Z 11005KT 30/09 A301 RMK A01 T02990092  RH  028%=      5-min Rain = 0
KSM1 150155Z 11006KT 30/09 A3011 RMK A01 T02980092  RH  029%=      5-min Rain = 0
KSM1 150200Z 11005KT 30/09 A3011 RMK A01 T02970092  RH  029%=      5-min Rain = 0
KSM1 150205Z 11006KT 29/09 A3011 RMK A01 T02940093  RH  029%=      5-min Rain = 0
KSM1 150210Z 10006KT 29/09 A3011 RMK A01 T02900094  RH  030%=      5-min Rain = 0
KSM1 150215Z 11005KT 29/10 A3011 RMK A01 T02880095  RH  031%=      5-min Rain = 0
KSM1 150220Z 10005KT 29/10 A3012 RMK A01 T02860095  RH  031%=      5-min Rain = 0
KSM1 150225Z 10005KT 28/10 A3012 RMK A01 T02840096  RH  032%=      5-min Rain = 0
KSM1 150230Z 10005KT 28/10 A3012 RMK A01 T02820097  RH  032%=      5-min Rain = 0
KSM1 150235Z 10005KT 28/10 A3013 RMK A01 T02800097  RH  033%=      5-min Rain = 0
KSM1 150240Z 10006KT 28/10 A3013 RMK A01 T02780098  RH  034%=      5-min Rain = 0
KSM1 150245Z 11006KT 28/10 A3013 RMK A01 T02770098  RH  034%=      5-min Rain = 0
KSM1 150250Z 11007KT 28/10 A3013 RMK A01 T02800098  RH  033%=      5-min Rain = 0
KSM1 150255Z 11007KT 28/10 A3013 RMK A01 T02800099  RH  033%=      5-min Rain = 0
KSM1 150300Z 10007KT 28/10 A3013 RMK A01 T02790102  RH  034%=      5-min Rain = 0
KSM1 150305Z 10006KT 28/11 A3013 RMK A01 T02770106  RH  036%=      5-min Rain = 0
KSM1 150310Z 10007KT 27/11 A3013 RMK A01 T02730107  RH  037%=      5-min Rain = 0
KSM1 150315Z 10007KT 27/11 A3013 RMK A01 T02730108  RH  037%=      5-min Rain = 0
KSM1 150320Z 10006KT 27/11 A3014 RMK A01 T02720110  RH  038%=      5-min Rain = 0
KSM1 150325Z 11005KT 27/11 A3014 RMK A01 T02700112  RH  039%=      5-min Rain = 0
KSM1 150330Z 12005KT 27/11 A3014 RMK A01 T02680111  RH  039%=      5-min Rain = 0
KSM1 150335Z 16007KT 26/11 A3015 RMK A01 T02610114  RH  041%=      5-min Rain = 0
KSM1 150340Z 19008G13KT 27/13 A3015 RMK A01 T02670126  RH  043%=      5-min Rain = 0
KSM1 150345Z 22007KT 27/14 A3015 RMK A01 T02740139  RH  045%=      5-min Rain = 0
KSM1 150350Z 22007KT 27/14 A3015 RMK A01 T02740143  RH  047%=      5-min Rain = 0
KSM1 150355Z 22006KT 27/15 A3015 RMK A01 T02740146  RH  048%=      5-min Rain = 0
KSM1 150400Z 22006KT 27/15 A3015 RMK A01 T02730149  RH  049%=      5-min Rain = 0
KSM1 150405Z 22005KT 27/15 A3015 RMK A01 T02720150  RH  049%=      5-min Rain = 0
KSM1 150410Z 21003KT 27/15 A3015 RMK A01 T02700150  RH  050%=      5-min Rain = 0
KSM1 150415Z 22003KT 27/15 A3016 RMK A01 T02680151  RH  051%=      5-min Rain = 0
KSM1 150420Z 21003KT 27/15 A3016 RMK A01 T02660151  RH  051%=      5-min Rain = 0
KSM1 150425Z 20002KT 27/15 A3016 RMK A01 T02650151  RH  052%=      5-min Rain = 0
KSM1 150430Z 20000KT 26/15 A3016 RMK A01 T02610150  RH  053%=      5-min Rain = 0
KSM1 150435Z 20000KT 26/15 A3016 RMK A01 T02560150  RH  054%=      5-min Rain = 0
KSM1 150440Z 20000KT 26/15 A3016 RMK A01 T02550148  RH  054%=      5-min Rain = 0
KSM1 150445Z 14001KT 25/15 A3016 RMK A01 T02520147  RH  055%=      5-min Rain = 0
KSM1 150450Z 14001KT 25/15 A3016 RMK A01 T02510148  RH  055%=      5-min Rain = 0
KSM1 150455Z 12001KT 25/15 A3016 RMK A01 T02500147  RH  055%=      5-min Rain = 0

Page generated in 0.0093 seconds.